createdAt,value
2023-03-10T00:00:17.038Z,14.0
2023-03-10T00:05:23.286Z,13.0
2023-03-10T00:10:29.433Z,13.0
2023-03-10T00:15:34.734Z,12.0
2023-03-10T00:20:40.876Z,11.0
2023-03-10T00:25:46.111Z,11.0
2023-03-10T00:30:52.453Z,10.0
2023-03-10T00:35:58.566Z,10.0
2023-03-10T00:41:04.732Z,10.0
2023-03-10T00:46:11.119Z,10.0
2023-03-10T00:51:17.160Z,10.0
2023-03-10T00:56:23.386Z,10.0
2023-03-10T01:01:29.642Z,10.0
2023-03-10T01:06:35.793Z,10.0
2023-03-10T01:11:41.975Z,10.0
2023-03-10T01:16:48.196Z,11.0
2023-03-10T01:21:54.393Z,12.0
2023-03-10T01:27:00.602Z,14.0
2023-03-10T01:32:06.812Z,15.0
2023-03-10T01:37:13.039Z,16.0
2023-03-10T01:42:19.228Z,14.0
2023-03-10T01:47:25.434Z,14.0
2023-03-10T01:52:31.631Z,12.5
2023-03-10T01:57:37.844Z,13.0
2023-03-10T02:02:44.052Z,14.0
2023-03-10T02:07:50.255Z,13.0
2023-03-10T02:12:55.511Z,14.0
2023-03-10T02:18:01.763Z,13.0
2023-03-10T02:23:06.950Z,13.0
2023-03-10T02:28:13.153Z,13.0
2023-03-10T02:33:19.352Z,13.5
2023-03-10T02:38:25.555Z,13.0
2023-03-10T02:43:31.786Z,14.0
2023-03-10T02:48:37.979Z,14.0
2023-03-10T02:53:44.182Z,14.0
2023-03-10T02:58:50.389Z,14.0
2023-03-10T03:03:56.607Z,13.0
2023-03-10T03:09:02.805Z,14.0
2023-03-10T03:14:09.018Z,14.0
2023-03-10T03:19:15.223Z,14.0
2023-03-10T03:24:21.433Z,14.0
2023-03-10T03:29:27.630Z,14.0
2023-03-10T03:34:33.851Z,14.0
2023-03-10T03:39:40.124Z,14.0
2023-03-10T03:44:46.252Z,14.0
2023-03-10T03:49:52.464Z,14.0
2023-03-10T03:54:58.669Z,14.0
2023-03-10T04:00:04.876Z,13.0
2023-03-10T04:05:11.095Z,14.0
2023-03-10T04:10:16.322Z,14.0
2023-03-10T04:15:22.535Z,14.0
2023-03-10T04:20:27.766Z,13.0
2023-03-10T04:25:33.974Z,13.0
2023-03-10T04:30:40.186Z,14.0
2023-03-10T04:35:46.414Z,13.0
2023-03-10T04:40:52.610Z,13.0
2023-03-10T04:45:58.837Z,12.0
2023-03-10T04:51:05.026Z,12.0
2023-03-10T04:56:11.242Z,12.0
2023-03-10T05:01:17.470Z,13.0
2023-03-10T05:06:23.706Z,12.0
2023-03-10T05:11:29.845Z,11.0
2023-03-10T05:16:36.151Z,12.0
2023-03-10T05:21:42.276Z,11.0
2023-03-10T05:26:48.460Z,11.0
2023-03-10T05:31:54.674Z,11.0
2023-03-10T05:37:00.889Z,10.0
2023-03-10T05:42:07.093Z,10.0
2023-03-10T05:47:13.303Z,7.5
2023-03-10T05:52:19.506Z,9.0
2023-03-10T05:57:25.714Z,9.0
2023-03-10T06:02:31.959Z,8.0
2023-03-10T06:07:37.160Z,10.0
2023-03-10T06:12:43.431Z,10.5
2023-03-10T06:17:48.603Z,11.0
2023-03-10T06:22:54.818Z,9.0
2023-03-10T06:28:00.050Z,11.0
2023-03-10T06:33:06.248Z,11.0
2023-03-10T06:38:12.455Z,7.0
2023-03-10T06:43:18.667Z,9.0
2023-03-10T06:48:24.874Z,16.0
2023-03-10T06:53:31.097Z,15.0
2023-03-10T06:58:37.295Z,20.0
2023-03-10T07:03:43.877Z,18.0
2023-03-10T07:08:49.735Z,16.0
2023-03-10T07:13:55.916Z,16.0
2023-03-10T07:19:02.128Z,15.0
2023-03-10T07:24:08.353Z,15.0
2023-03-10T07:29:14.539Z,13.0
2023-03-10T07:34:20.762Z,12.0
2023-03-10T07:39:26.974Z,12.5
2023-03-10T07:44:33.175Z,13.0
2023-03-10T07:49:39.367Z,12.0
2023-03-10T07:54:45.575Z,12.0
2023-03-10T07:59:51.795Z,12.0
2023-03-10T08:04:57.080Z,13.0
2023-03-10T08:10:03.227Z,13.0
2023-03-10T08:15:08.466Z,14.0
2023-03-10T08:20:14.668Z,15.0
2023-03-10T08:25:20.875Z,15.0
2023-03-10T08:30:27.084Z,13.0
2023-03-10T08:35:33.287Z,13.0
2023-03-10T08:40:39.500Z,12.0
2023-03-10T08:45:45.710Z,12.0
2023-03-10T08:50:51.916Z,13.0
2023-03-10T08:55:58.126Z,12.0
2023-03-10T09:01:04.359Z,10.0
2023-03-10T09:06:10.544Z,11.0
2023-03-10T09:11:16.771Z,12.0
2023-03-10T09:16:23.024Z,11.0
2023-03-10T09:21:30.712Z,11.0
2023-03-10T09:26:35.378Z,12.0
2023-03-10T09:31:41.613Z,8.0
2023-03-10T09:36:47.788Z,7.5
2023-03-10T09:41:53.999Z,7.0
2023-03-10T09:47:00.204Z,7.0
2023-03-10T09:52:06.410Z,9.0
2023-03-10T09:57:12.952Z,7.0
2023-03-10T10:02:17.853Z,8.0
2023-03-10T10:07:24.058Z,8.0
2023-03-10T10:12:29.306Z,8.0
2023-03-10T10:17:39.317Z,8.0
2023-03-10T10:22:41.710Z,9.0
2023-03-10T10:27:47.928Z,9.0
2023-03-10T10:32:54.263Z,8.0
2023-03-10T10:38:00.334Z,8.0
2023-03-10T10:43:06.562Z,9.0
2023-03-10T10:48:12.768Z,9.5
2023-03-10T10:53:18.968Z,9.0
2023-03-10T10:58:25.166Z,9.0
2023-03-10T11:03:33.229Z,12.0
2023-03-10T11:08:37.673Z,9.0
2023-03-10T11:13:43.803Z,10.0
2023-03-10T11:18:51.526Z,9.0
2023-03-10T11:23:56.229Z,10.5
2023-03-10T11:29:02.476Z,11.0
2023-03-10T11:34:08.629Z,12.0
2023-03-10T11:39:14.844Z,12.0
2023-03-10T11:44:21.044Z,12.0
2023-03-10T11:49:27.296Z,12.0
2023-03-10T11:54:33.465Z,13.0
2023-03-10T11:59:38.704Z,12.0
2023-03-10T12:04:44.898Z,10.0
2023-03-10T12:09:50.139Z,10.0
2023-03-10T12:14:56.421Z,10.0
2023-03-10T12:20:02.555Z,9.0
2023-03-10T12:25:08.761Z,9.0
2023-03-10T12:30:15.048Z,11.0
2023-03-10T12:35:21.184Z,10.0
2023-03-10T12:40:27.387Z,10.0
2023-03-10T12:45:33.591Z,8.0
2023-03-10T12:50:39.806Z,8.0
2023-03-10T12:55:46.004Z,7.0
2023-03-10T13:00:52.273Z,6.0
2023-03-10T13:05:58.423Z,6.0
2023-03-10T13:11:04.632Z,5.0
2023-03-10T13:16:10.915Z,5.0
2023-03-10T13:21:17.056Z,4.0
2023-03-10T13:26:23.256Z,3.5
2023-03-10T13:31:29.520Z,3.0
2023-03-10T13:36:35.676Z,3.0
2023-03-10T13:41:41.961Z,3.0
2023-03-10T13:46:48.093Z,3.0
2023-03-10T13:51:54.297Z,3.0
2023-03-10T13:56:59.549Z,3.0
2023-03-10T14:02:05.740Z,2.0
2023-03-10T14:07:10.975Z,2.0
2023-03-10T14:12:17.189Z,2.0
2023-03-10T14:17:23.392Z,2.0
2023-03-10T14:22:29.618Z,1.0
2023-03-10T14:27:35.844Z,1.0
2023-03-10T14:32:42.127Z,2.0
2023-03-10T14:37:48.542Z,1.0
2023-03-10T14:42:54.490Z,1.0
2023-03-10T14:48:00.853Z,1.0
2023-03-10T14:53:06.938Z,1.0
2023-03-10T14:58:13.046Z,1.0
2023-03-10T15:03:19.252Z,1.0
2023-03-10T15:08:25.472Z,2.0
2023-03-10T15:13:31.672Z,2.0
2023-03-10T15:18:37.900Z,2.0
2023-03-10T15:23:44.234Z,2.0
2023-03-10T15:28:50.301Z,3.0
2023-03-10T15:33:56.507Z,4.0
2023-03-10T15:39:02.711Z,4.0
2023-03-10T15:44:09.256Z,4.0
2023-03-10T15:49:15.151Z,4.0
2023-03-10T15:54:20.374Z,6.0
2023-03-10T15:59:26.609Z,4.0
2023-03-10T16:04:32.830Z,3.0
2023-03-10T16:09:38.028Z,2.0
2023-03-10T16:14:44.250Z,2.0
2023-03-10T16:19:50.437Z,3.0
2023-03-10T16:24:56.689Z,3.0
2023-03-10T16:30:03.144Z,4.0
2023-03-10T16:35:09.063Z,4.0
2023-03-10T16:40:15.308Z,3.0
2023-03-10T16:45:21.484Z,3.0
2023-03-10T16:50:27.717Z,5.0
2023-03-10T16:55:33.885Z,4.0
2023-03-10T17:00:40.140Z,4.0
2023-03-10T17:05:46.297Z,4.0
2023-03-10T17:10:52.510Z,5.0
2023-03-10T17:15:58.715Z,5.0
2023-03-10T17:21:04.924Z,5.0
2023-03-10T17:26:11.126Z,5.0
2023-03-10T17:31:17.517Z,4.0
2023-03-10T17:36:23.550Z,4.0
2023-03-10T17:41:29.747Z,3.0
2023-03-10T17:46:35.959Z,2.0
2023-03-10T17:51:42.163Z,1.0
2023-03-10T17:56:48.375Z,0.0
2023-03-10T18:01:53.672Z,1.0
2023-03-10T18:06:59.811Z,0.5
2023-03-10T18:12:05.058Z,0.0
2023-03-10T18:17:11.257Z,1.0
2023-03-10T18:22:17.480Z,1.0
2023-03-10T18:27:23.674Z,1.0
2023-03-10T18:32:29.958Z,1.0
2023-03-10T18:37:36.143Z,1.0
2023-03-10T18:42:42.286Z,1.0
2023-03-10T18:47:48.491Z,1.0
2023-03-10T18:52:54.698Z,1.0
2023-03-10T18:58:00.906Z,1.0
2023-03-10T19:03:07.207Z,1.0
2023-03-10T19:08:13.327Z,1.0
2023-03-10T19:13:19.531Z,2.0
2023-03-10T19:18:25.737Z,2.0
2023-03-10T19:23:31.942Z,3.0
2023-03-10T19:28:38.155Z,3.5
2023-03-10T19:33:44.360Z,4.0
2023-03-10T19:38:50.572Z,5.0
2023-03-10T19:43:56.774Z,5.0
2023-03-10T19:49:02.981Z,5.0
2023-03-10T19:54:09.197Z,4.0
2023-03-10T19:59:14.427Z,6.0
2023-03-10T20:04:20.647Z,4.0
2023-03-10T20:09:26.845Z,6.0
2023-03-10T20:14:32.081Z,5.0
2023-03-10T20:19:38.285Z,4.0
2023-03-10T20:24:44.497Z,5.0
2023-03-10T20:29:50.695Z,6.0
2023-03-10T20:34:56.908Z,5.0
2023-03-10T20:40:03.111Z,5.5
2023-03-10T20:45:09.316Z,5.0
2023-03-10T20:50:15.527Z,4.0
2023-03-10T20:55:21.732Z,4.0
2023-03-10T21:00:27.941Z,5.0
2023-03-10T21:05:34.145Z,6.0
2023-03-10T21:10:40.350Z,6.0
2023-03-10T21:15:46.558Z,8.0
2023-03-10T21:20:52.772Z,5.0
2023-03-10T21:25:58.981Z,5.0
2023-03-10T21:31:05.248Z,5.0
2023-03-10T21:36:11.394Z,4.0
2023-03-10T21:41:17.607Z,5.0
2023-03-10T21:46:23.924Z,5.0
2023-03-10T21:51:32.109Z,5.0
2023-03-10T21:56:36.238Z,8.0
2023-03-10T22:01:41.520Z,5.0
2023-03-10T22:06:47.679Z,5.0
2023-03-10T22:11:52.906Z,8.0
2023-03-10T22:16:59.114Z,7.5
2023-03-10T22:22:05.327Z,4.5
2023-03-10T22:27:11.543Z,6.0
2023-03-10T22:32:17.761Z,5.0
2023-03-10T22:37:23.952Z,6.0
2023-03-10T22:42:30.153Z,5.5
2023-03-10T22:47:36.346Z,8.0
2023-03-10T22:52:42.570Z,8.5
2023-03-10T22:57:48.764Z,7.0
2023-03-10T23:02:55.119Z,9.0
2023-03-10T23:08:01.200Z,6.0
2023-03-10T23:13:07.390Z,5.0
2023-03-10T23:18:13.608Z,4.0
2023-03-10T23:23:19.799Z,5.0
2023-03-10T23:28:26.029Z,7.0
2023-03-10T23:33:31.244Z,7.0
2023-03-10T23:38:37.449Z,6.5
2023-03-10T23:43:43.652Z,7.5
2023-03-10T23:48:49.861Z,6.0
2023-03-10T23:53:56.070Z,7.5
2023-03-10T23:59:01.327Z,6.0
